Withersfield, United Kingdom

1:02 PM BST on June 25, 2018 (GMT +0100)
Essex | | Change Station

Elev 335 ft 52.05 °N, 0.41 °E | Updated 3 seconds ago

Clear
Clear
78.4 °F
Feels Like 77 °F
N
2.7
Wind Variable Wind from WSW
Gusts 4.9 mph

Today
High -- | Low -- °F
--% Chance of Precip.
Yesterday
High -- | Low -- °F
Precip. -- in
Pressure 30.28 in
Visibility 6.2 miles
Clouds Clear
Heat Index 77 °F
Dew Point 17 °F
Humidity 10%
Rainfall 0.00 in
Snow Depth Not available.
4:38 AM 9:23 PM
Waxing Gibbous, 93% visible
METAR EGUN 251156Z AUTO 00000KT 9999 CLR 26/11 A3027 RMK AO2 RAB36E41 SLP253 P0000 60000 T02620107 10265 20153 58001 $
Pressure 30.28 in
Visibility 6.2 miles
Clouds Clear
Heat Index 77 °F
Dew Point 17 °F
Humidity 10%
Rainfall 0.00 in
Snow Depth Not available.
4:38 AM 9:23 PM
Waxing Gibbous, 93% visible
METAR EGUN 251156Z AUTO 00000KT 9999 CLR 26/11 A3027 RMK AO2 RAB36E41 SLP253 P0000 60000 T02620107 10265 20153 58001 $

Get Severe Weather Alerts

Thanks for signing up!

Be on the lookout for a verification email in your inbox.

You'll start receiving the daily forecast at 6 AM.

×

10-Day Weather Forecast

×

Almanac

Astronomy

Jun. 25, 2018 Rise Set
Actual Time
Civil Twilight
Nautical Twilight
Astronomical Twilight
Moon
Length of Visible Light
Length of Day
Tomorrow will be .
, % of the Moon is Illuminated

Today's Extremes

Country Highs Country Lows

Community

WunderPhotos

Category 6

Welcome to Category 6. This is the collective home for Weather Underground's featured writeups by Dr. Jeff Masters (right), Bob Henson (left), Chris Burt, and other regular contributors.

Nearby

Air Quality

  Air Quality AQ Index Pollutant
Not available.

Snow Depth

Station Depth Elevation

Earthquake Activity

City Distance Mag. Time & Date
Minimum magnitude displayed is 2.5.

Coastal Water Temperatures

Place Temperature

Stations

Nearby Weather Stations

Station Location Temp. Windchill Dew Point Humidity Wind Precip. Elev Updated Type